createdAt,value
2023-01-08T00:00:08.387Z,100563.14
2023-01-08T00:03:17.686Z,100563.63
2023-01-08T00:06:07.443Z,100563.25
2023-01-08T00:08:53.984Z,100559.97
2023-01-08T00:11:42.170Z,100558.28
2023-01-08T00:14:33.720Z,100554.42
2023-01-08T00:17:20.605Z,100554.99
2023-01-08T00:20:12.632Z,100556.93
2023-01-08T00:22:59.316Z,100558.55
2023-01-08T00:25:46.966Z,100562.63
2023-01-08T00:28:33.944Z,100566.63
2023-01-08T00:31:20.860Z,100564.20
2023-01-08T00:34:08.081Z,100560.67
2023-01-08T00:36:54.635Z,100562.27
2023-01-08T00:39:42.761Z,100564.80
2023-01-08T00:42:31.692Z,100552.80
2023-01-08T00:45:19.650Z,100552.01
2023-01-08T00:48:08.353Z,100551.89
2023-01-08T00:50:55.459Z,100554.91
2023-01-08T00:53:43.942Z,100552.98
2023-01-08T00:56:30.829Z,100560.38
2023-01-08T00:59:21.559Z,100550.67
2023-01-08T01:02:08.661Z,100543.24
2023-01-08T01:04:55.451Z,100541.77
2023-01-08T01:07:45.521Z,100539.38
2023-01-08T01:10:32.361Z,100541.71
2023-01-08T01:13:19.194Z,100535.23
2023-01-08T01:16:07.760Z,100533.20
2023-01-08T01:18:57.699Z,100528.52
2023-01-08T01:21:44.564Z,100530.56
2023-01-08T01:24:31.604Z,100523.02
2023-01-08T01:27:18.192Z,100526.66
2023-01-08T01:30:06.611Z,100523.02
2023-01-08T01:32:53.504Z,100519.02
2023-01-08T01:35:40.273Z,100515.91
2023-01-08T01:38:27.013Z,100523.23
2023-01-08T01:41:32.683Z,100518.42
2023-01-08T01:44:45.380Z,100514.72
2023-01-08T01:47:39.862Z,100518.38
2023-01-08T01:50:30.792Z,100516.02
2023-01-08T01:53:34.521Z,100515.63
2023-01-08T01:56:22.577Z,100502.80
2023-01-08T01:59:10.912Z,100500.95
2023-01-08T02:01:58.519Z,100491.91
2023-01-08T02:04:45.103Z,100489.85
2023-01-08T02:07:53.945Z,100483.52
2023-01-08T02:10:49.044Z,100479.24
2023-01-08T02:13:49.079Z,100476.25
2023-01-08T02:17:01.241Z,100474.39
2023-01-08T02:19:58.120Z,100470.45
2023-01-08T02:22:56.522Z,100467.41
2023-01-08T02:25:43.198Z,100461.55
2023-01-08T02:28:32.688Z,100462.67
2023-01-08T02:31:21.598Z,100462.28
2023-01-08T02:34:09.284Z,100463.75
2023-01-08T02:36:57.648Z,100465.89
2023-01-08T02:39:43.877Z,100470.52
2023-01-08T02:42:43.560Z,100467.85
2023-01-08T02:45:36.266Z,100463.39
2023-01-08T02:49:07.631Z,100460.73
2023-01-08T02:51:57.552Z,100454.16
2023-01-08T02:54:47.057Z,100453.24
2023-01-08T02:57:34.434Z,100458.07
2023-01-08T03:00:21.336Z,100456.94
2023-01-08T03:03:20.011Z,100458.55
2023-01-08T03:06:10.541Z,100455.71
2023-01-08T03:08:59.318Z,100443.86
2023-01-08T03:12:00.759Z,100438.71
2023-01-08T03:15:04.383Z,100443.70
2023-01-08T03:17:55.850Z,100441.88
2023-01-08T03:20:44.160Z,100440.98
2023-01-08T03:23:34.831Z,100438.73
2023-01-08T03:26:26.281Z,100439.92
2023-01-08T03:29:17.933Z,100436.96
2023-01-08T03:32:11.397Z,100437.65
2023-01-08T03:35:00.716Z,100435.41
2023-01-08T03:37:54.945Z,100430.63
2023-01-08T03:40:47.355Z,100429.52
2023-01-08T03:43:34.155Z,100423.48
2023-01-08T03:46:29.233Z,100425.95
2023-01-08T03:49:17.858Z,100420.88
2023-01-08T03:52:04.455Z,100427.11
2023-01-08T03:54:51.920Z,100422.95
2023-01-08T03:57:39.107Z,100425.45
2023-01-08T04:00:25.935Z,100422.13
2023-01-08T04:03:12.572Z,100429.84
2023-01-08T04:06:00.420Z,100426.68
2023-01-08T04:08:50.589Z,100421.09
2023-01-08T04:11:38.716Z,100431.15
2023-01-08T04:14:25.539Z,100428.42
2023-01-08T04:17:13.425Z,100434.27
2023-01-08T04:19:59.834Z,100437.11
2023-01-08T04:22:46.446Z,100434.90
2023-01-08T04:25:33.392Z,100439.71
2023-01-08T04:28:21.070Z,100424.58
2023-01-08T04:31:09.262Z,100427.19
2023-01-08T04:33:55.629Z,100413.69
2023-01-08T04:36:42.416Z,100410.19
2023-01-08T04:39:29.654Z,100411.51
2023-01-08T04:42:15.915Z,100408.27
2023-01-08T04:45:02.762Z,100405.89
2023-01-08T04:47:55.984Z,100406.20
2023-01-08T04:50:42.696Z,100405.02
2023-01-08T04:53:30.815Z,100407.88
2023-01-08T04:56:17.548Z,100409.36
2023-01-08T04:59:04.304Z,100414.31
2023-01-08T05:01:51.164Z,100415.70
2023-01-08T05:04:37.795Z,100411.49
2023-01-08T05:07:25.108Z,100412.53
2023-01-08T05:10:11.833Z,100407.23
2023-01-08T05:13:01.713Z,100415.38
2023-01-08T05:15:48.770Z,100409.52
2023-01-08T05:18:49.711Z,100404.24
2023-01-08T05:21:36.975Z,100406.19
2023-01-08T05:24:24.377Z,100405.29
2023-01-08T05:27:11.057Z,100405.80
2023-01-08T05:29:58.187Z,100399.60
2023-01-08T05:32:44.904Z,100395.58
2023-01-08T05:35:31.513Z,100397.64
2023-01-08T05:38:18.465Z,100396.10
2023-01-08T05:41:05.524Z,100393.29
2023-01-08T05:43:52.114Z,100396.61
2023-01-08T05:46:38.810Z,100405.30
2023-01-08T05:49:25.801Z,100394.33
2023-01-08T05:52:12.259Z,100392.73
2023-01-08T05:55:00.238Z,100395.17
2023-01-08T05:57:46.919Z,100397.48
2023-01-08T06:00:34.733Z,100391.30
2023-01-08T06:03:23.059Z,100390.45
2023-01-08T06:06:11.536Z,100390.33
2023-01-08T06:08:58.639Z,100392.29
2023-01-08T06:11:45.536Z,100395.36
2023-01-08T06:14:32.272Z,100390.69
2023-01-08T06:17:21.543Z,100394.11
2023-01-08T06:20:08.888Z,100388.29
2023-01-08T06:22:55.236Z,100389.81
2023-01-08T06:25:41.835Z,100384.40
2023-01-08T06:28:28.431Z,100388.03
2023-01-08T06:34:18.189Z,100382.90
2023-01-08T06:37:05.032Z,100380.83
2023-01-08T06:39:51.728Z,100379.84
2023-01-08T06:42:38.575Z,100376.55
2023-01-08T06:45:25.211Z,100372.77
2023-01-08T06:48:11.849Z,100368.21
2023-01-08T06:51:02.904Z,100367.88
2023-01-08T06:53:49.697Z,100369.21
2023-01-08T06:56:48.985Z,100367.80
2023-01-08T06:59:39.962Z,100356.77
2023-01-08T07:02:27.086Z,100357.80
2023-01-08T07:05:13.952Z,100354.13
2023-01-08T07:08:00.916Z,100348.09
2023-01-08T07:10:48.007Z,100346.23
2023-01-08T07:13:36.808Z,100354.66
2023-01-08T07:16:24.674Z,100355.09
2023-01-08T07:19:12.786Z,100358.14
2023-01-08T07:22:00.898Z,100358.27
2023-01-08T07:24:47.757Z,100361.07
2023-01-08T07:27:34.351Z,100351.36
2023-01-08T07:30:29.907Z,100348.39
2023-01-08T07:33:20.141Z,100348.23
2023-01-08T07:36:07.438Z,100346.04
2023-01-08T07:38:54.854Z,100341.34
2023-01-08T07:41:41.567Z,100335.85
2023-01-08T07:44:28.168Z,100333.02
2023-01-08T07:47:15.054Z,100327.65
2023-01-08T07:50:03.788Z,100320.63
2023-01-08T07:52:50.320Z,100313.48
2023-01-08T07:55:37.325Z,100315.88
2023-01-08T07:58:23.954Z,100308.85
2023-01-08T08:01:14.013Z,100305.15
2023-01-08T08:04:01.410Z,100311.44
2023-01-08T08:06:48.378Z,100304.98
2023-01-08T08:09:37.223Z,100307.20
2023-01-08T08:12:24.982Z,100313.54
2023-01-08T08:15:12.189Z,100306.56
2023-01-08T08:17:59.439Z,100306.02
2023-01-08T08:20:46.249Z,100307.79
2023-01-08T08:23:35.184Z,100308.36
2023-01-08T08:26:23.777Z,100314.15
2023-01-08T08:29:13.966Z,100312.63
2023-01-08T08:34:09.925Z,100310.42
2023-01-08T08:36:56.676Z,100304.97
2023-01-08T08:39:44.557Z,100295.94
2023-01-08T08:42:31.125Z,100288.56
2023-01-08T08:45:37.861Z,100292.45
2023-01-08T08:48:25.116Z,100285.52
2023-01-08T08:51:11.964Z,100277.34
2023-01-08T08:53:58.646Z,100280.77
2023-01-08T08:56:48.671Z,100271.19
2023-01-08T08:59:36.509Z,100271.11
2023-01-08T09:02:23.430Z,100265.95
2023-01-08T09:05:11.373Z,100265.13
2023-01-08T09:07:58.788Z,100270.73
2023-01-08T09:10:45.332Z,100260.26
2023-01-08T09:13:32.227Z,100251.45
2023-01-08T09:16:19.130Z,100256.04
2023-01-08T09:19:08.129Z,100258.24
2023-01-08T09:21:56.181Z,100265.95
2023-01-08T09:24:44.943Z,100265.48
2023-01-08T09:27:32.051Z,100258.83
2023-01-08T09:30:18.579Z,100259.42
2023-01-08T09:33:05.895Z,100256.51
2023-01-08T09:35:52.926Z,100255.95
2023-01-08T09:38:39.489Z,100250.40
2023-01-08T09:41:31.103Z,100246.42
2023-01-08T09:44:22.690Z,100247.15
2023-01-08T09:47:28.754Z,100249.34
2023-01-08T09:50:15.726Z,100245.24
2023-01-08T09:53:02.890Z,100243.77
2023-01-08T09:56:10.129Z,100230.75
2023-01-08T09:59:03.319Z,100220.61
2023-01-08T10:01:52.559Z,100225.15
2023-01-08T10:04:44.083Z,100223.20
2023-01-08T10:07:31.341Z,100227.29
2023-01-08T10:10:21.882Z,100226.78
2023-01-08T10:13:11.512Z,100227.08
2023-01-08T10:15:59.992Z,100224.11
2023-01-08T10:18:47.366Z,100222.15
2023-01-08T10:21:40.536Z,100216.20
2023-01-08T10:24:36.256Z,100214.08
2023-01-08T10:27:25.100Z,100209.30
2023-01-08T10:30:19.933Z,100206.85
2023-01-08T10:33:13.569Z,100204.34
2023-01-08T10:36:04.137Z,100203.15
2023-01-08T10:38:59.752Z,100198.13
2023-01-08T10:41:48.740Z,100197.10
2023-01-08T10:44:36.551Z,100190.11
2023-01-08T10:47:24.211Z,100188.85
2023-01-08T10:50:21.075Z,100181.33
2023-01-08T10:53:24.728Z,100173.35
2023-01-08T10:56:42.243Z,100167.52
2023-01-08T10:59:29.459Z,100157.38
2023-01-08T11:02:42.571Z,100161.29
2023-01-08T11:05:37.213Z,100155.10
2023-01-08T11:08:24.965Z,100151.70
2023-01-08T11:11:12.155Z,100146.86
2023-01-08T11:14:01.087Z,100138.27
2023-01-08T11:16:48.541Z,100136.64
2023-01-08T11:19:35.321Z,100138.29
2023-01-08T11:22:24.364Z,100135.92
2023-01-08T11:25:19.989Z,100142.80
2023-01-08T11:28:13.016Z,100136.67
2023-01-08T11:31:14.542Z,100127.92
2023-01-08T11:34:36.078Z,100124.58
2023-01-08T11:37:30.700Z,100124.25
2023-01-08T11:40:26.333Z,100126.29
2023-01-08T11:43:16.402Z,100114.55
2023-01-08T11:46:33.718Z,100116.84
2023-01-08T11:49:39.805Z,100123.19
2023-01-08T11:52:36.011Z,100114.62
2023-01-08T11:55:38.882Z,100113.53
2023-01-08T11:58:38.595Z,100116.07
2023-01-08T12:01:49.167Z,100113.04
2023-01-08T12:04:46.559Z,100113.91
2023-01-08T12:07:50.276Z,100105.47
2023-01-08T12:11:27.650Z,100105.46
2023-01-08T12:14:36.291Z,100105.07
2023-01-08T12:24:15.553Z,100108.45
2023-01-08T12:27:18.236Z,100102.58
2023-01-08T12:30:12.414Z,100094.33
2023-01-08T12:33:05.710Z,100088.70
2023-01-08T12:36:00.457Z,100083.05
2023-01-08T12:38:54.915Z,100088.53
2023-01-08T12:41:45.652Z,100094.91
2023-01-08T12:44:33.451Z,100088.01
2023-01-08T12:47:25.767Z,100085.79
2023-01-08T12:50:39.143Z,100088.60
2023-01-08T12:53:48.783Z,100093.34
2023-01-08T12:57:07.255Z,100089.66
2023-01-08T13:00:24.839Z,100086.30
2023-01-08T13:03:15.458Z,100086.41
2023-01-08T13:06:17.298Z,100092.41
2023-01-08T13:09:04.740Z,100090.21
2023-01-08T13:11:53.998Z,100082.92
2023-01-08T13:14:49.582Z,100078.14
2023-01-08T13:17:37.936Z,100086.23
2023-01-08T13:20:27.832Z,100087.16
2023-01-08T13:23:27.505Z,100086.10
2023-01-08T13:26:14.398Z,100088.52
2023-01-08T13:29:23.841Z,100088.61
2023-01-08T13:32:47.489Z,100081.17
2023-01-08T13:35:34.682Z,100068.27
2023-01-08T13:53:03.967Z,100059.86
2023-01-08T13:56:05.579Z,100048.89
2023-01-08T13:58:53.946Z,100051.71
2023-01-08T14:01:39.093Z,100049.30
2023-01-08T14:04:24.904Z,100051.55
2023-01-08T14:07:13.453Z,100049.06
2023-01-08T14:10:13.307Z,100049.72
2023-01-08T14:13:07.037Z,100048.54
2023-01-08T14:15:52.752Z,100050.74
2023-01-08T14:18:46.332Z,100059.64
2023-01-08T14:21:31.902Z,100059.54
2023-01-08T14:24:19.579Z,100056.33
2023-01-08T14:27:27.634Z,100058.42
2023-01-08T14:30:16.809Z,100052.15
2023-01-08T14:33:03.971Z,100047.63
2023-01-08T14:35:52.377Z,100040.52
2023-01-08T14:38:39.146Z,100043.98
2023-01-08T14:41:56.733Z,100039.13
2023-01-08T14:44:46.096Z,100035.70
2023-01-08T14:47:55.850Z,100032.06
2023-01-08T14:50:45.536Z,100035.18
2023-01-08T14:53:43.059Z,100027.53
2023-01-08T14:56:36.053Z,100031.73
2023-01-08T14:59:28.301Z,100038.20
2023-01-08T15:02:25.207Z,100026.77
2023-01-08T15:05:15.298Z,100026.92
2023-01-08T15:08:22.742Z,100024.64
2023-01-08T15:11:18.858Z,100018.98
2023-01-08T15:14:14.713Z,100005.82
2023-01-08T15:17:17.242Z,100001.46
2023-01-08T15:20:05.461Z,99996.77
2023-01-08T15:22:52.362Z,99999.58
2023-01-08T15:25:39.016Z,100003.80
2023-01-08T15:28:26.846Z,99998.69
2023-01-08T15:31:33.269Z,99998.30
2023-01-08T15:34:20.947Z,99993.90
2023-01-08T15:37:07.696Z,99998.95
2023-01-08T15:40:00.397Z,99995.36
2023-01-08T15:43:05.664Z,99997.77
2023-01-08T15:45:52.078Z,99993.06
2023-01-08T15:48:39.281Z,99996.19
2023-01-08T15:51:30.160Z,99998.73
2023-01-08T15:54:17.088Z,100007.17
2023-01-08T15:57:03.647Z,99995.08
2023-01-08T15:59:50.555Z,99991.59
2023-01-08T16:02:46.702Z,99985.71
2023-01-08T16:05:35.184Z,99985.33
2023-01-08T16:08:22.350Z,99987.02
2023-01-08T16:11:08.817Z,99974.75
2023-01-08T16:13:55.724Z,99972.20
2023-01-08T16:17:16.661Z,99958.38
2023-01-08T16:20:25.797Z,99952.05
2023-01-08T16:23:14.211Z,99950.92
2023-01-08T16:26:04.753Z,99947.66
2023-01-08T16:28:51.613Z,99948.38
2023-01-08T16:31:38.685Z,99944.69
2023-01-08T16:34:25.313Z,99946.11
2023-01-08T16:37:11.997Z,99936.97
2023-01-08T16:39:58.867Z,99933.30
2023-01-08T16:42:46.207Z,99932.03
2023-01-08T16:45:33.345Z,99934.88
2023-01-08T16:48:20.199Z,99932.92
2023-01-08T16:51:07.411Z,99918.66
2023-01-08T16:53:54.502Z,99900.57
2023-01-08T16:56:41.042Z,99911.55
2023-01-08T16:59:27.976Z,99941.75
2023-01-08T17:02:16.868Z,99964.55
2023-01-08T17:05:03.964Z,99942.73
2023-01-08T17:07:52.813Z,99931.77
2023-01-08T17:10:39.769Z,99935.91
2023-01-08T17:13:26.453Z,99942.90
2023-01-08T17:16:15.727Z,99942.67
2023-01-08T17:19:03.206Z,99934.64
2023-01-08T17:21:51.418Z,99930.45
2023-01-08T17:24:39.528Z,99931.09
2023-01-08T17:27:26.778Z,99918.52
2023-01-08T17:30:17.074Z,99914.10
2023-01-08T17:33:04.288Z,99909.06
2023-01-08T17:35:51.583Z,99906.00
2023-01-08T17:44:52.893Z,99900.09
2023-01-08T17:47:39.829Z,99899.75
2023-01-08T17:50:27.735Z,99899.77
2023-01-08T17:53:14.729Z,99902.73
2023-01-08T17:56:05.855Z,99898.52
2023-01-08T17:58:52.470Z,99889.80
2023-01-08T18:01:39.304Z,99888.52
2023-01-08T18:04:27.757Z,99899.99
2023-01-08T18:07:15.562Z,99893.07
2023-01-08T18:10:03.731Z,99887.77
2023-01-08T18:12:50.249Z,99885.70
2023-01-08T18:15:36.888Z,99864.20
2023-01-08T18:18:23.796Z,99856.30
2023-01-08T18:21:10.577Z,99848.34
2023-01-08T18:23:57.249Z,99854.16
2023-01-08T18:26:46.751Z,99853.23
2023-01-08T18:29:34.471Z,99852.45
2023-01-08T18:32:25.934Z,99854.49
2023-01-08T18:35:12.887Z,99864.23
2023-01-08T18:37:59.503Z,99865.11
2023-01-08T18:40:46.426Z,99857.64
2023-01-08T18:43:35.498Z,99857.17
2023-01-08T18:46:25.639Z,99857.48
2023-01-08T18:49:12.464Z,99850.95
2023-01-08T18:52:02.532Z,99866.91
2023-01-08T18:54:49.171Z,99875.05
2023-01-08T18:57:35.702Z,99877.31
2023-01-08T19:00:23.413Z,99877.78
2023-01-08T19:03:12.318Z,99881.08
2023-01-08T19:05:59.452Z,99874.30
2023-01-08T19:08:46.016Z,99863.92
2023-01-08T19:11:32.547Z,99868.66
2023-01-08T19:14:19.247Z,99868.77
2023-01-08T19:17:05.993Z,99864.56
2023-01-08T19:19:53.065Z,99858.36
2023-01-08T19:22:39.769Z,99860.17
2023-01-08T19:25:27.119Z,99858.22
2023-01-08T19:28:15.682Z,99851.98
2023-01-08T19:31:02.800Z,99844.41
2023-01-08T19:33:49.240Z,99840.05
2023-01-08T19:36:42.340Z,99835.61
2023-01-08T19:39:30.390Z,99839.00
2023-01-08T19:42:35.547Z,99848.52
2023-01-08T19:45:22.152Z,99858.42
2023-01-08T19:48:10.465Z,99856.59
2023-01-08T19:50:59.090Z,99859.52
2023-01-08T19:53:47.165Z,99865.10
2023-01-08T19:56:33.643Z,99871.58
2023-01-08T19:59:21.762Z,99867.95
2023-01-08T20:02:10.308Z,99866.83
2023-01-08T20:04:57.186Z,99870.96
2023-01-08T20:07:46.506Z,99866.17
2023-01-08T20:12:28.948Z,99861.41
2023-01-08T20:15:16.966Z,99864.05
2023-01-08T20:18:03.163Z,99866.95
2023-01-08T20:20:50.344Z,99864.02
2023-01-08T20:23:36.850Z,99863.82
2023-01-08T20:26:21.991Z,99859.64
2023-01-08T20:29:14.029Z,99856.13
2023-01-08T20:37:56.003Z,99829.14
2023-01-08T20:40:42.593Z,99815.85
2023-01-08T20:43:29.298Z,99797.30
2023-01-08T20:46:15.994Z,99788.39
2023-01-08T20:49:05.280Z,99775.65
2023-01-08T20:51:58.545Z,99767.34
2023-01-08T20:54:46.362Z,99764.05
2023-01-08T20:57:32.921Z,99753.16
2023-01-08T21:00:21.527Z,99739.21
2023-01-08T21:03:08.216Z,99733.14
2023-01-08T21:05:54.437Z,99718.13
2023-01-08T21:08:41.491Z,99720.44
2023-01-08T21:11:28.082Z,99722.72
2023-01-08T21:14:14.233Z,99720.27
2023-01-08T21:17:00.980Z,99721.89
2023-01-08T21:19:47.439Z,99718.73
2023-01-08T21:22:34.062Z,99706.55
2023-01-08T21:25:20.638Z,99704.92
2023-01-08T21:28:08.151Z,99702.67
2023-01-08T21:34:32.855Z,99691.05
2023-01-08T21:37:18.358Z,99686.20
2023-01-08T21:40:06.144Z,99691.77
2023-01-08T21:43:09.939Z,99692.08
2023-01-08T21:46:00.905Z,99691.80
2023-01-08T21:48:50.920Z,99678.19
2023-01-08T21:51:54.714Z,99678.55
2023-01-08T21:54:40.167Z,99666.89
2023-01-08T21:57:28.871Z,99665.60
2023-01-08T22:00:14.640Z,99669.55
2023-01-08T22:02:59.922Z,99666.98
2023-01-08T22:05:56.684Z,99665.07
2023-01-08T22:08:42.200Z,99667.76
2023-01-08T22:11:27.425Z,99665.34
2023-01-08T22:14:13.071Z,99664.75
2023-01-08T22:16:58.465Z,99655.69
2023-01-08T22:19:43.649Z,99658.96
2023-01-08T22:22:29.133Z,99653.14
2023-01-08T22:25:14.285Z,99654.29
2023-01-08T22:27:59.462Z,99651.90
2023-01-08T22:30:44.804Z,99649.54
2023-01-08T22:33:29.956Z,99646.70
2023-01-08T22:36:15.182Z,99644.89
2023-01-08T22:39:04.749Z,99645.45
2023-01-08T22:41:49.921Z,99646.56
2023-01-08T22:44:35.192Z,99639.77
2023-01-08T22:47:20.962Z,99638.90
2023-01-08T22:50:06.235Z,99647.60
2023-01-08T22:52:51.275Z,99646.66
2023-01-08T22:55:45.513Z,99630.55
2023-01-08T22:58:30.732Z,99624.83
2023-01-08T23:01:26.886Z,99617.70
2023-01-08T23:04:12.363Z,99612.89
2023-01-08T23:06:57.901Z,99610.48
2023-01-08T23:09:43.193Z,99613.95
2023-01-08T23:12:31.656Z,99603.25
2023-01-08T23:15:19.056Z,99594.00
2023-01-08T23:18:05.022Z,99583.44
2023-01-08T23:20:50.286Z,99571.14
2023-01-08T23:23:36.093Z,99555.22
2023-01-08T23:26:27.429Z,99560.40
2023-01-08T23:29:12.890Z,99562.38
2023-01-08T23:31:58.233Z,99556.10
2023-01-08T23:34:43.364Z,99541.63
2023-01-08T23:37:28.757Z,99538.15
2023-01-08T23:40:13.934Z,99545.38
2023-01-08T23:42:59.428Z,99547.31
2023-01-08T23:45:44.886Z,99547.85
2023-01-08T23:48:30.632Z,99546.05
2023-01-08T23:51:15.879Z,99530.91
2023-01-08T23:54:02.258Z,99529.29
2023-01-08T23:56:48.516Z,99526.43
2023-01-08T23:59:33.667Z,99519.52
